createdAt,value
2023-02-15T00:01:53.685Z,0.60
2023-02-15T00:04:24.355Z,0.60
2023-02-15T00:06:51.102Z,0.80
2023-02-15T00:09:17.730Z,0.70
2023-02-15T00:11:45.918Z,0.70
2023-02-15T00:14:14.375Z,0.80
2023-02-15T00:16:41.714Z,1.00
2023-02-15T00:19:08.648Z,1.00
2023-02-15T00:21:35.751Z,1.10
2023-02-15T00:24:03.214Z,0.70
2023-02-15T00:26:30.125Z,0.70
2023-02-15T00:28:57.218Z,0.60
2023-02-15T00:31:23.958Z,0.60
2023-02-15T00:33:50.605Z,0.60
2023-02-15T00:36:17.331Z,0.50
2023-02-15T00:38:43.931Z,0.60
2023-02-15T00:41:10.788Z,0.90
2023-02-15T00:43:37.511Z,0.80
2023-02-15T00:46:05.437Z,0.80
2023-02-15T00:48:32.136Z,0.80
2023-02-15T00:50:59.645Z,0.70
2023-02-15T00:53:26.859Z,0.60
2023-02-15T00:55:53.667Z,0.50
2023-02-15T00:58:20.286Z,0.50
2023-02-15T01:00:47.426Z,0.40
2023-02-15T01:03:14.871Z,0.40
2023-02-15T01:05:41.590Z,0.60
2023-02-15T01:08:08.207Z,0.70
2023-02-15T01:10:35.180Z,1.00
2023-02-15T01:13:01.763Z,0.90
2023-02-15T01:15:28.496Z,0.70
2023-02-15T01:17:55.137Z,0.80
2023-02-15T01:20:22.827Z,1.00
2023-02-15T01:22:50.825Z,1.00
2023-02-15T01:25:18.407Z,0.90
2023-02-15T01:27:45.304Z,0.70
2023-02-15T01:30:12.552Z,0.60
2023-02-15T01:32:39.204Z,0.50
2023-02-15T01:35:06.184Z,0.40
2023-02-15T01:37:33.217Z,0.50
2023-02-15T01:40:01.054Z,0.70
2023-02-15T01:42:28.594Z,0.70
2023-02-15T01:45:02.909Z,0.60
2023-02-15T01:47:35.667Z,0.40
2023-02-15T01:50:08.585Z,0.30
2023-02-15T01:52:36.763Z,0.30
2023-02-15T01:55:03.802Z,0.40
2023-02-15T01:57:30.757Z,0.30
2023-02-15T01:59:59.394Z,0.20
2023-02-15T02:02:26.065Z,0.20
2023-02-15T02:04:54.074Z,0.20
2023-02-15T02:07:21.651Z,0.30
2023-02-15T02:09:48.921Z,0.20
2023-02-15T02:12:18.788Z,0.20
2023-02-15T02:14:45.585Z,0.30
2023-02-15T02:17:21.125Z,0.20
2023-02-15T02:20:02.771Z,0.10
2023-02-15T02:22:38.310Z,0.00
2023-02-15T02:25:22.980Z,0.00
2023-02-15T02:27:59.828Z,-0.10
2023-02-15T02:30:36.322Z,0.00
2023-02-15T02:33:28.724Z,0.10
2023-02-15T02:36:07.730Z,0.10
2023-02-15T02:39:03.434Z,0.30
2023-02-15T02:41:52.727Z,0.40
2023-02-15T02:44:47.896Z,0.40
2023-02-15T02:47:25.095Z,0.40
2023-02-15T02:50:00.395Z,0.40
2023-02-15T02:52:36.571Z,0.30
2023-02-15T02:55:04.780Z,0.10
2023-02-15T02:57:31.362Z,-0.10
2023-02-15T02:59:57.977Z,-0.30
2023-02-15T03:02:27.067Z,-0.30
2023-02-15T03:05:04.302Z,-0.30
2023-02-15T03:07:31.740Z,-0.30
2023-02-15T03:09:59.303Z,-0.10
2023-02-15T03:12:31.524Z,0.00
2023-02-15T03:15:04.736Z,-0.20
2023-02-15T03:17:33.106Z,-0.40
2023-02-15T03:20:02.188Z,-0.50
2023-02-15T03:23:02.620Z,-0.40
2023-02-15T03:25:33.668Z,-0.50
2023-02-15T03:28:02.825Z,-0.60
2023-02-15T03:30:29.598Z,-0.60
2023-02-15T03:32:56.216Z,-0.60
2023-02-15T03:35:24.076Z,-0.80
2023-02-15T03:37:59.866Z,-1.00
2023-02-15T03:40:50.238Z,-0.90
2023-02-15T03:43:26.164Z,-0.80
2023-02-15T03:45:56.778Z,-0.80
2023-02-15T03:48:32.897Z,-0.90
2023-02-15T03:51:29.149Z,-1.00
2023-02-15T03:53:55.779Z,-1.00
2023-02-15T03:56:22.470Z,-0.90
2023-02-15T03:59:07.430Z,-0.80
2023-02-15T04:01:58.005Z,-0.60
2023-02-15T04:04:46.422Z,-0.80
2023-02-15T04:07:13.196Z,-0.90
2023-02-15T04:09:58.284Z,-0.90
2023-02-15T04:12:24.950Z,-0.90
2023-02-15T04:15:09.920Z,-0.90
2023-02-15T04:17:38.096Z,-1.00
2023-02-15T04:20:23.637Z,-1.10
2023-02-15T04:23:08.518Z,-1.10
2023-02-15T04:25:35.127Z,-1.10
2023-02-15T04:28:02.072Z,-1.20
2023-02-15T04:30:28.804Z,-1.10
2023-02-15T04:32:56.311Z,-1.10
2023-02-15T04:35:23.336Z,-1.10
2023-02-15T04:37:49.996Z,-1.10
2023-02-15T04:40:19.177Z,-1.00
2023-02-15T04:42:49.223Z,-1.00
2023-02-15T04:45:15.948Z,-1.20
2023-02-15T04:47:42.631Z,-1.10
2023-02-15T04:50:09.568Z,-1.10
2023-02-15T04:52:36.190Z,-1.10
2023-02-15T04:55:02.952Z,-1.00
2023-02-15T04:57:29.605Z,-1.10
2023-02-15T04:59:56.534Z,-1.20
2023-02-15T05:02:23.124Z,-1.20
2023-02-15T05:04:49.788Z,-1.30
2023-02-15T05:07:16.374Z,-1.30
2023-02-15T05:09:43.050Z,-1.30
2023-02-15T05:12:09.645Z,-1.20
2023-02-15T05:14:36.243Z,-1.10
2023-02-15T05:17:04.132Z,-1.10
2023-02-15T05:19:30.749Z,-0.90
2023-02-15T05:21:57.365Z,-0.80
2023-02-15T05:24:42.855Z,-0.80
2023-02-15T05:27:30.418Z,-0.80
2023-02-15T05:29:57.079Z,-0.90
2023-02-15T05:32:23.857Z,-1.10
2023-02-15T05:34:50.578Z,-1.20
2023-02-15T05:37:17.418Z,-1.00
2023-02-15T05:39:44.052Z,-0.90
2023-02-15T05:42:10.645Z,-0.90
2023-02-15T05:44:37.246Z,-1.00
2023-02-15T05:47:03.934Z,-1.00
2023-02-15T05:49:31.484Z,-0.80
2023-02-15T05:51:58.487Z,-0.70
2023-02-15T05:54:25.150Z,-0.80
2023-02-15T05:56:51.773Z,-0.80
2023-02-15T05:59:18.453Z,-0.80
2023-02-15T06:01:45.078Z,-0.70
2023-02-15T06:04:11.670Z,-0.70
2023-02-15T06:06:38.282Z,-0.70
2023-02-15T06:09:04.883Z,-0.60
2023-02-15T06:11:31.512Z,-0.40
2023-02-15T06:13:58.095Z,-0.30
2023-02-15T06:16:24.699Z,-0.40
2023-02-15T06:18:53.463Z,-0.40
2023-02-15T06:21:20.388Z,-0.50
2023-02-15T06:23:47.019Z,-0.40
2023-02-15T06:26:13.683Z,-0.30
2023-02-15T06:28:42.028Z,-0.30
2023-02-15T06:31:08.800Z,-0.50
2023-02-15T06:33:35.604Z,-0.60
2023-02-15T06:36:02.918Z,-0.70
2023-02-15T06:38:29.718Z,-0.60
2023-02-15T06:40:56.346Z,-0.30
2023-02-15T06:43:22.973Z,-0.50
2023-02-15T06:45:49.597Z,-0.40
2023-02-15T06:48:16.179Z,-0.50
2023-02-15T06:50:42.846Z,-0.40
2023-02-15T06:53:09.582Z,-0.10
2023-02-15T06:55:36.243Z,-0.20
2023-02-15T06:58:02.840Z,-0.30
2023-02-15T07:00:29.462Z,-0.30
2023-02-15T07:02:56.741Z,-0.40
2023-02-15T07:05:23.590Z,-0.60
2023-02-15T07:07:50.342Z,-0.70
2023-02-15T07:10:17.000Z,-0.80
2023-02-15T07:12:43.786Z,-0.80
2023-02-15T07:15:11.531Z,-0.70
2023-02-15T07:17:38.203Z,-0.60
2023-02-15T07:20:15.624Z,-0.60
2023-02-15T07:22:42.249Z,-0.50
2023-02-15T07:25:10.363Z,-0.50
2023-02-15T07:27:37.117Z,-0.40
2023-02-15T07:30:05.429Z,-0.40
2023-02-15T07:32:32.591Z,-0.20
2023-02-15T07:34:59.382Z,-0.10
2023-02-15T07:37:26.321Z,0.00
2023-02-15T07:39:53.023Z,0.10
2023-02-15T07:42:20.866Z,0.30
2023-02-15T07:44:47.748Z,0.70
2023-02-15T07:47:14.520Z,1.30
2023-02-15T07:49:41.199Z,1.20
2023-02-15T07:52:07.830Z,1.40
2023-02-15T07:54:34.525Z,1.40
2023-02-15T07:57:02.083Z,1.40
2023-02-15T07:59:28.790Z,1.20
2023-02-15T08:01:57.192Z,1.30
2023-02-15T08:04:24.132Z,1.40
2023-02-15T08:06:52.876Z,1.70
2023-02-15T08:09:19.554Z,1.90
2023-02-15T08:11:46.268Z,2.10
2023-02-15T08:14:13.508Z,2.30
2023-02-15T08:16:44.034Z,2.50
2023-02-15T08:19:16.410Z,2.70
2023-02-15T08:21:45.068Z,2.70
2023-02-15T08:24:12.472Z,2.80
2023-02-15T08:26:41.762Z,2.90
2023-02-15T08:29:10.062Z,2.80
2023-02-15T08:31:38.345Z,3.00
2023-02-15T08:34:05.372Z,3.10
2023-02-15T08:36:32.699Z,3.10
2023-02-15T08:38:59.941Z,3.10
2023-02-15T08:41:28.364Z,3.20
2023-02-15T08:43:55.686Z,3.30
2023-02-15T08:46:24.102Z,3.40
2023-02-15T08:48:50.967Z,3.40
2023-02-15T08:51:21.703Z,3.50
2023-02-15T08:53:55.946Z,3.40
2023-02-15T08:56:27.173Z,3.60
2023-02-15T08:58:54.407Z,3.70
2023-02-15T09:01:22.989Z,3.80
2023-02-15T09:03:51.167Z,3.80
2023-02-15T09:06:18.236Z,3.80
2023-02-15T09:08:45.059Z,3.80
2023-02-15T09:11:14.159Z,3.80
2023-02-15T09:13:40.835Z,3.90
2023-02-15T09:16:08.432Z,3.90
2023-02-15T09:18:38.226Z,3.90
2023-02-15T09:21:09.602Z,4.00
2023-02-15T09:23:36.576Z,4.10
2023-02-15T09:26:07.690Z,4.00
2023-02-15T09:28:34.472Z,4.20
2023-02-15T09:31:08.153Z,4.10
2023-02-15T09:33:35.906Z,4.10
2023-02-15T09:36:03.077Z,4.10
2023-02-15T09:38:29.790Z,4.10
2023-02-15T09:41:12.814Z,4.30
2023-02-15T09:43:57.668Z,4.20
2023-02-15T09:46:49.287Z,4.40
2023-02-15T09:49:38.656Z,4.40
2023-02-15T09:52:11.385Z,4.50
2023-02-15T09:54:44.098Z,4.50
2023-02-15T09:57:19.936Z,4.40
2023-02-15T09:59:52.512Z,4.90
2023-02-15T10:02:25.392Z,4.90
2023-02-15T10:05:08.070Z,5.00
2023-02-15T10:08:00.774Z,4.70
2023-02-15T10:10:52.004Z,5.00
2023-02-15T10:13:18.550Z,4.80
2023-02-15T10:15:56.674Z,5.20
2023-02-15T10:18:43.948Z,4.90
2023-02-15T10:21:46.303Z,4.80
2023-02-15T10:24:19.873Z,5.00
2023-02-15T10:26:50.018Z,5.20
2023-02-15T10:29:25.455Z,5.00
2023-02-15T10:31:58.670Z,5.40
2023-02-15T10:34:36.656Z,5.30
2023-02-15T10:37:06.532Z,5.20
2023-02-15T10:39:59.661Z,5.70
2023-02-15T10:42:37.725Z,5.70
2023-02-15T10:45:16.089Z,5.70
2023-02-15T10:48:14.922Z,5.80
2023-02-15T10:50:49.564Z,5.60
2023-02-15T10:53:48.558Z,5.70
2023-02-15T10:56:36.317Z,5.60
2023-02-15T10:59:11.763Z,5.80
2023-02-15T11:01:41.774Z,5.90
2023-02-15T11:04:17.569Z,6.00
2023-02-15T11:06:49.262Z,6.00
2023-02-15T11:09:18.950Z,6.50
2023-02-15T11:11:47.592Z,6.00
2023-02-15T11:14:59.789Z,6.20
2023-02-15T11:17:38.633Z,6.40
2023-02-15T11:20:25.660Z,6.60
2023-02-15T11:22:54.183Z,6.60
2023-02-15T11:25:26.839Z,6.30
2023-02-15T11:27:53.466Z,6.30
2023-02-15T11:30:29.130Z,6.20
2023-02-15T11:33:00.017Z,6.40
2023-02-15T11:35:36.736Z,6.40
2023-02-15T11:38:19.672Z,6.30
2023-02-15T11:41:02.583Z,7.00
2023-02-15T11:43:55.192Z,6.80
2023-02-15T11:46:22.683Z,6.90
2023-02-15T11:48:49.317Z,6.60
2023-02-15T11:51:18.395Z,6.90
2023-02-15T11:53:45.558Z,6.70
2023-02-15T11:56:16.123Z,6.50
2023-02-15T11:58:55.457Z,7.30
2023-02-15T12:01:44.940Z,7.40
2023-02-15T12:04:22.713Z,7.00
2023-02-15T12:07:08.736Z,7.30
2023-02-15T12:09:44.645Z,6.90
2023-02-15T12:12:22.547Z,6.90
2023-02-15T12:14:53.248Z,7.00
2023-02-15T12:17:21.964Z,7.20
2023-02-15T12:19:51.541Z,7.10
2023-02-15T12:22:24.656Z,7.10
2023-02-15T12:24:52.180Z,7.10
2023-02-15T12:27:22.021Z,6.90
2023-02-15T12:29:52.921Z,6.90
2023-02-15T12:32:27.540Z,7.30
2023-02-15T12:34:58.186Z,7.50
2023-02-15T12:37:28.244Z,8.10
2023-02-15T12:39:59.459Z,7.90
2023-02-15T12:42:26.992Z,8.00
2023-02-15T12:45:04.899Z,7.80
2023-02-15T12:47:32.223Z,7.80
2023-02-15T12:50:24.224Z,7.70
2023-02-15T12:52:51.809Z,8.40
2023-02-15T12:55:27.143Z,8.80
2023-02-15T12:58:16.941Z,8.20
2023-02-15T13:00:43.702Z,8.60
2023-02-15T13:03:20.584Z,8.60
2023-02-15T13:05:52.301Z,8.40
2023-02-15T13:08:21.479Z,8.60
2023-02-15T13:11:04.571Z,8.50
2023-02-15T13:13:32.933Z,8.60
2023-02-15T13:16:03.736Z,8.20
2023-02-15T13:18:34.717Z,8.60
2023-02-15T13:21:21.057Z,8.20
2023-02-15T13:23:50.368Z,8.60
2023-02-15T13:26:19.662Z,8.50
2023-02-15T13:28:48.561Z,8.60
2023-02-15T13:31:23.654Z,8.30
2023-02-15T13:33:56.113Z,8.60
2023-02-15T13:36:42.396Z,8.20
2023-02-15T13:39:41.607Z,8.40
2023-02-15T13:42:29.880Z,8.80
2023-02-15T13:45:31.520Z,8.40
2023-02-15T13:48:06.956Z,8.30
2023-02-15T13:50:42.588Z,8.10
2023-02-15T13:53:32.273Z,8.20
2023-02-15T13:56:10.042Z,8.40
2023-02-15T13:58:53.768Z,8.20
2023-02-15T14:01:45.861Z,8.20
2023-02-15T14:04:34.373Z,8.30
2023-02-15T14:07:10.555Z,8.30
2023-02-15T14:09:49.192Z,8.30
2023-02-15T14:12:46.658Z,8.70
2023-02-15T14:15:15.153Z,8.50
2023-02-15T14:17:48.076Z,8.60
2023-02-15T14:20:43.533Z,8.70
2023-02-15T14:23:30.728Z,8.40
2023-02-15T14:26:10.847Z,8.40
2023-02-15T14:28:58.543Z,8.40
2023-02-15T14:31:31.925Z,8.80
2023-02-15T14:33:59.419Z,8.90
2023-02-15T14:36:26.413Z,9.00
2023-02-15T14:39:34.809Z,9.40
2023-02-15T14:42:05.865Z,9.30
2023-02-15T14:44:46.372Z,9.20
2023-02-15T14:47:16.067Z,8.90
2023-02-15T14:49:42.689Z,8.90
2023-02-15T14:52:11.652Z,8.90
2023-02-15T14:54:38.231Z,8.80
2023-02-15T14:57:07.328Z,8.70
2023-02-15T14:59:46.146Z,8.80
2023-02-15T15:02:19.668Z,8.90
2023-02-15T15:04:54.191Z,8.70
2023-02-15T15:07:23.100Z,8.70
2023-02-15T15:10:00.019Z,8.80
2023-02-15T15:12:26.597Z,8.80
2023-02-15T15:14:54.349Z,8.70
2023-02-15T15:17:38.719Z,8.80
2023-02-15T15:20:27.897Z,8.70
2023-02-15T15:23:16.403Z,8.70
2023-02-15T15:25:46.145Z,8.60
2023-02-15T15:28:34.995Z,8.60
2023-02-15T15:31:10.218Z,8.60
2023-02-15T15:34:00.968Z,8.60
2023-02-15T15:36:32.980Z,8.60
2023-02-15T15:39:18.217Z,8.60
2023-02-15T15:41:51.199Z,8.50
2023-02-15T15:44:20.514Z,8.40
2023-02-15T15:47:10.703Z,8.40
2023-02-15T15:49:38.197Z,8.40
2023-02-15T15:52:15.522Z,8.30
2023-02-15T15:54:42.282Z,8.20
2023-02-15T15:57:21.071Z,8.20
2023-02-15T15:59:47.682Z,8.20
2023-02-15T16:02:19.128Z,8.10
2023-02-15T16:04:47.041Z,8.20
2023-02-15T16:07:19.749Z,8.10
2023-02-15T16:10:05.002Z,8.00
2023-02-15T16:12:35.837Z,8.00
2023-02-15T16:15:16.405Z,7.90
2023-02-15T16:17:44.826Z,7.90
2023-02-15T16:20:37.007Z,7.80
2023-02-15T16:23:03.572Z,7.70
2023-02-15T16:25:56.166Z,7.70
2023-02-15T16:28:22.774Z,7.70
2023-02-15T16:31:04.797Z,7.60
2023-02-15T16:33:38.768Z,7.50
2023-02-15T16:36:08.692Z,7.40
2023-02-15T16:38:44.384Z,7.40
2023-02-15T16:41:14.755Z,7.40
2023-02-15T16:43:42.290Z,7.30
2023-02-15T16:46:12.730Z,7.20
2023-02-15T16:48:47.399Z,7.20
2023-02-15T16:51:21.838Z,7.20
2023-02-15T16:53:51.543Z,7.20
2023-02-15T16:56:18.729Z,7.10
2023-02-15T16:58:46.071Z,7.10
2023-02-15T17:01:14.631Z,7.20
2023-02-15T17:03:41.983Z,7.00
2023-02-15T17:06:30.351Z,6.80
2023-02-15T17:09:07.710Z,6.70
2023-02-15T17:11:41.683Z,6.70
2023-02-15T17:14:10.016Z,6.50
2023-02-15T17:16:37.452Z,6.40
2023-02-15T17:19:10.202Z,6.70
2023-02-15T17:21:42.531Z,6.60
2023-02-15T17:24:24.275Z,6.70
2023-02-15T17:26:52.908Z,6.50
2023-02-15T17:29:40.084Z,6.30
2023-02-15T17:32:13.370Z,6.20
2023-02-15T17:34:44.827Z,6.20
2023-02-15T17:37:34.784Z,6.20
2023-02-15T17:40:02.831Z,6.20
2023-02-15T17:42:29.508Z,6.10
2023-02-15T17:44:56.146Z,6.00
2023-02-15T17:47:25.544Z,6.20
2023-02-15T17:49:52.340Z,5.90
2023-02-15T17:52:19.093Z,5.80
2023-02-15T17:55:04.139Z,5.70
2023-02-15T17:57:31.147Z,5.60
2023-02-15T18:00:16.533Z,5.50
2023-02-15T18:03:01.579Z,5.50
2023-02-15T18:05:46.660Z,5.40
2023-02-15T18:08:36.753Z,5.60
2023-02-15T18:11:22.265Z,5.40
2023-02-15T18:13:48.875Z,5.60
2023-02-15T18:16:17.555Z,5.60
2023-02-15T18:18:44.604Z,5.50
2023-02-15T18:21:12.346Z,5.50
2023-02-15T18:23:39.580Z,5.20
2023-02-15T18:26:06.436Z,5.60
2023-02-15T18:28:33.149Z,5.40
2023-02-15T18:31:00.611Z,5.40
2023-02-15T18:33:39.374Z,5.20
2023-02-15T18:36:08.237Z,5.00
2023-02-15T18:38:34.862Z,5.20
2023-02-15T18:41:04.751Z,5.40
2023-02-15T18:43:31.773Z,5.10
2023-02-15T18:45:58.441Z,4.80
2023-02-15T18:48:25.071Z,4.60
2023-02-15T18:50:51.830Z,4.60
2023-02-15T18:53:20.088Z,4.60
2023-02-15T18:55:46.773Z,4.50
2023-02-15T18:58:18.036Z,4.60
2023-02-15T19:00:45.484Z,4.50
2023-02-15T19:03:13.494Z,4.60
2023-02-15T19:05:44.888Z,4.50
2023-02-15T19:08:19.655Z,4.30
2023-02-15T19:10:46.607Z,4.20
2023-02-15T19:13:13.467Z,4.00
2023-02-15T19:15:40.481Z,3.90
2023-02-15T19:18:07.088Z,4.30
2023-02-15T19:20:37.444Z,4.30
2023-02-15T19:23:04.092Z,4.40
2023-02-15T19:25:31.764Z,4.30
2023-02-15T19:27:58.370Z,4.40
2023-02-15T19:30:29.929Z,3.90
2023-02-15T19:32:57.382Z,3.90
2023-02-15T19:35:26.082Z,4.00
2023-02-15T19:37:53.767Z,4.20
2023-02-15T19:40:30.774Z,3.90
2023-02-15T19:42:57.416Z,4.00
2023-02-15T19:45:29.205Z,3.80
2023-02-15T19:47:55.995Z,3.90
2023-02-15T19:50:26.594Z,4.30
2023-02-15T19:52:53.214Z,4.10
2023-02-15T19:55:25.975Z,4.00
2023-02-15T19:57:52.991Z,4.10
2023-02-15T20:00:27.340Z,3.90
2023-02-15T20:02:54.105Z,3.70
2023-02-15T20:05:20.746Z,3.60
2023-02-15T20:07:48.801Z,3.60
2023-02-15T20:10:15.619Z,3.50
2023-02-15T20:12:42.717Z,3.50
2023-02-15T20:15:29.603Z,3.50
2023-02-15T20:17:57.155Z,3.50
2023-02-15T20:20:31.508Z,3.30
2023-02-15T20:22:58.296Z,3.40
2023-02-15T20:25:29.133Z,3.40
2023-02-15T20:27:57.463Z,3.40
2023-02-15T20:30:25.927Z,3.30
2023-02-15T20:32:52.699Z,3.20
2023-02-15T20:35:23.640Z,3.30
2023-02-15T20:37:54.524Z,3.30
2023-02-15T20:40:31.979Z,3.30
2023-02-15T20:42:59.024Z,3.10
2023-02-15T20:45:32.892Z,3.10
2023-02-15T20:48:01.447Z,3.20
2023-02-15T20:50:32.209Z,3.20
2023-02-15T20:52:59.682Z,3.10
2023-02-15T20:55:28.901Z,3.00
2023-02-15T20:57:56.023Z,2.90
2023-02-15T21:00:24.240Z,2.80
2023-02-15T21:02:52.227Z,2.90
2023-02-15T21:05:20.847Z,2.70
2023-02-15T21:07:47.862Z,2.60
2023-02-15T21:10:22.217Z,2.70
2023-02-15T21:12:48.989Z,2.80
2023-02-15T21:15:36.592Z,2.70
2023-02-15T21:18:07.609Z,2.60
2023-02-15T21:20:34.211Z,2.60
2023-02-15T21:23:02.836Z,2.80
2023-02-15T21:25:31.705Z,2.80
2023-02-15T21:27:58.357Z,2.70
2023-02-15T21:30:25.359Z,2.70
2023-02-15T21:32:52.057Z,2.70
2023-02-15T21:35:18.935Z,2.90
2023-02-15T21:37:46.230Z,3.00
2023-02-15T21:40:23.164Z,3.00
2023-02-15T21:43:08.026Z,2.80
2023-02-15T21:45:53.096Z,2.90
2023-02-15T21:48:21.718Z,3.10
2023-02-15T21:51:09.987Z,3.00
2023-02-15T21:53:39.520Z,3.00
2023-02-15T21:56:06.458Z,2.90
2023-02-15T21:58:35.756Z,2.80
2023-02-15T22:01:03.022Z,2.70
2023-02-15T22:03:32.878Z,2.70
2023-02-15T22:05:59.600Z,2.80
2023-02-15T22:08:26.316Z,2.70
2023-02-15T22:10:56.412Z,2.70
2023-02-15T22:13:30.891Z,2.80
2023-02-15T22:15:58.380Z,2.70
2023-02-15T22:18:26.691Z,2.60
2023-02-15T22:20:53.683Z,2.70
2023-02-15T22:23:20.489Z,2.70
2023-02-15T22:25:56.477Z,2.90
2023-02-15T22:28:31.858Z,2.90
2023-02-15T22:30:58.517Z,3.10
2023-02-15T22:33:27.523Z,2.90
2023-02-15T22:35:54.289Z,2.60
2023-02-15T22:38:21.009Z,2.40
2023-02-15T22:40:48.687Z,2.40
2023-02-15T22:43:37.590Z,2.50
2023-02-15T22:46:06.286Z,2.60
2023-02-15T22:48:32.906Z,2.40
2023-02-15T22:50:59.583Z,2.40
2023-02-15T22:53:26.247Z,2.40
2023-02-15T22:55:53.041Z,2.40
2023-02-15T22:58:25.316Z,2.50
2023-02-15T23:00:51.980Z,2.40
2023-02-15T23:03:23.440Z,2.20
2023-02-15T23:05:50.214Z,2.20
2023-02-15T23:08:16.994Z,2.40
2023-02-15T23:10:44.958Z,2.50
2023-02-15T23:13:25.602Z,2.70
2023-02-15T23:16:14.126Z,2.60
2023-02-15T23:18:41.790Z,2.30
2023-02-15T23:21:30.407Z,2.20
2023-02-15T23:24:23.439Z,2.20
2023-02-15T23:26:50.175Z,2.20
2023-02-15T23:29:18.471Z,2.20
2023-02-15T23:31:46.947Z,2.20
2023-02-15T23:34:21.950Z,2.40
2023-02-15T23:36:48.573Z,2.30
2023-02-15T23:39:35.635Z,2.40
2023-02-15T23:42:13.050Z,2.40
2023-02-15T23:44:40.489Z,2.20
2023-02-15T23:47:09.696Z,2.10
2023-02-15T23:49:36.298Z,2.00
2023-02-15T23:52:02.900Z,1.90
2023-02-15T23:54:29.528Z,1.90
2023-02-15T23:56:59.418Z,1.90
2023-02-15T23:59:28.544Z,1.90
